createdAt,value
2016-08-06T00:00:57.606Z,1017.96
2016-08-06T00:02:10.574Z,1017.96
2016-08-06T00:03:23.541Z,1017.97
2016-08-06T00:04:36.512Z,1017.96
2016-08-06T00:05:49.478Z,1017.94
2016-08-06T00:07:02.441Z,1017.93
2016-08-06T00:08:15.621Z,1017.91
2016-08-06T00:09:28.598Z,1017.91
2016-08-06T00:10:41.973Z,1017.91
2016-08-06T00:11:55.148Z,1017.9
2016-08-06T00:13:08.113Z,1017.88
2016-08-06T00:14:21.078Z,1017.86
2016-08-06T00:15:34.078Z,1017.9
2016-08-06T00:16:47.062Z,1017.86
2016-08-06T00:18:00.023Z,1017.86
2016-08-06T00:19:12.994Z,1017.78
2016-08-06T00:20:25.956Z,1017.77
2016-08-06T00:21:38.927Z,1017.77
2016-08-06T00:22:51.911Z,1017.76
2016-08-06T00:24:04.870Z,1017.79
2016-08-06T00:25:17.838Z,1017.79
2016-08-06T00:26:30.812Z,1017.79
2016-08-06T00:27:43.783Z,1017.81
2016-08-06T00:28:56.767Z,1017.78
2016-08-06T00:30:09.728Z,1017.77
2016-08-06T00:31:22.695Z,1017.77
2016-08-06T00:32:35.669Z,1017.77
2016-08-06T00:33:48.637Z,1017.76
2016-08-06T00:35:01.614Z,1017.73
2016-08-06T00:36:14.576Z,1017.69
2016-08-06T00:37:27.539Z,1017.73
2016-08-06T00:38:40.508Z,1017.73
2016-08-06T00:39:53.475Z,1017.76
2016-08-06T00:41:06.443Z,1017.77
2016-08-06T00:42:19.412Z,1017.8
2016-08-06T00:43:32.375Z,1017.76
2016-08-06T00:44:45.347Z,1017.77
2016-08-06T00:45:58.311Z,1017.81
2016-08-06T00:47:11.292Z,1017.83
2016-08-06T00:48:24.257Z,1017.79
2016-08-06T00:49:37.227Z,1017.84
2016-08-06T00:50:50.196Z,1017.84
2016-08-06T00:52:03.162Z,1017.87
2016-08-06T00:53:16.332Z,1017.89
2016-08-06T00:54:29.309Z,1017.9
2016-08-06T00:55:42.277Z,1017.89
2016-08-06T00:56:55.249Z,1017.85
2016-08-06T00:58:08.476Z,1017.86
2016-08-06T00:59:21.444Z,1017.88
2016-08-06T01:00:34.619Z,1017.88
2016-08-06T01:01:47.585Z,1017.92
2016-08-06T01:03:00.568Z,1017.91
2016-08-06T01:04:13.549Z,1017.93
2016-08-06T01:05:26.520Z,1017.92
2016-08-06T01:06:39.494Z,1017.9
2016-08-06T01:07:52.457Z,1017.94
2016-08-06T01:09:05.419Z,1018
2016-08-06T01:10:18.390Z,1018
2016-08-06T01:11:31.569Z,1018.02
2016-08-06T01:12:44.532Z,1017.98
2016-08-06T01:13:57.501Z,1017.98
2016-08-06T01:15:10.488Z,1018.02
2016-08-06T01:16:22.274Z,1018.05
2016-08-06T01:17:35.452Z,1018.04
2016-08-06T01:18:48.425Z,1018.04
2016-08-06T01:20:01.414Z,1018.04
2016-08-06T01:21:14.379Z,1018.05
2016-08-06T01:22:27.348Z,1018.08
2016-08-06T01:23:40.314Z,1018.07
2016-08-06T01:24:53.294Z,1018.09
2016-08-06T01:26:06.664Z,1018.12
2016-08-06T01:27:19.657Z,1018.17
2016-08-06T01:28:32.629Z,1018.15
2016-08-06T01:29:45.593Z,1018.15
2016-08-06T01:30:58.562Z,1018.12
2016-08-06T01:32:11.733Z,1018.15
2016-08-06T01:33:24.891Z,1018.16
2016-08-06T01:34:38.067Z,1018.16
2016-08-06T01:35:51.047Z,1018.18
2016-08-06T01:37:04.228Z,1018.21
2016-08-06T01:38:17.196Z,1018.24
2016-08-06T01:39:30.359Z,1018.34
2016-08-06T01:40:43.330Z,1018.34
2016-08-06T01:41:56.493Z,1018.34
2016-08-06T01:43:09.474Z,1018.33
2016-08-06T01:44:22.453Z,1018.27
2016-08-06T01:45:35.439Z,1018.26
2016-08-06T01:46:48.415Z,1018.22
2016-08-06T01:48:01.386Z,1018.21
2016-08-06T01:49:14.354Z,1018.2
2016-08-06T01:50:27.342Z,1018.18
2016-08-06T01:51:40.320Z,1018.18
2016-08-06T01:52:53.286Z,1018.19
2016-08-06T01:54:06.249Z,1018.18
2016-08-06T01:55:19.214Z,1018.18
2016-08-06T01:56:32.179Z,1018.21
2016-08-06T01:57:45.549Z,1018.21
2016-08-06T01:58:58.564Z,1018.19
2016-08-06T02:00:11.523Z,1018.19
2016-08-06T02:01:23.574Z,1018.15
2016-08-06T02:02:36.543Z,1018.19
2016-08-06T02:03:49.519Z,1018.2
2016-08-06T02:05:02.487Z,1018.19
2016-08-06T02:06:15.671Z,1018.18
2016-08-06T02:07:28.837Z,1018.16
2016-08-06T02:08:41.808Z,1018.18
2016-08-06T02:09:54.784Z,1018.16
2016-08-06T02:11:07.765Z,1018.13
2016-08-06T02:12:20.738Z,1018.16
2016-08-06T02:13:33.695Z,1018.14
2016-08-06T02:14:46.661Z,1018.14
2016-08-06T02:15:59.627Z,1018.12
2016-08-06T02:17:12.593Z,1018.1
2016-08-06T02:18:25.575Z,1018.09
2016-08-06T02:19:38.541Z,1018.12
2016-08-06T02:20:51.514Z,1018.11
2016-08-06T02:22:04.483Z,1018.14
2016-08-06T02:23:17.457Z,1018.16
2016-08-06T02:24:30.425Z,1018.12
2016-08-06T02:25:43.396Z,1018.12
2016-08-06T02:26:56.768Z,1018.14
2016-08-06T02:28:09.769Z,1018.11
2016-08-06T02:29:22.735Z,1018.13
2016-08-06T02:31:48.415Z,1018.21
2016-08-06T02:33:01.380Z,1018.17
2016-08-06T02:34:14.358Z,1018.14
2016-08-06T02:35:27.335Z,1018.14
2016-08-06T02:36:40.313Z,1018.11
2016-08-06T02:37:53.284Z,1018.19
2016-08-06T02:39:06.246Z,1018.2
2016-08-06T02:40:19.220Z,1018.16
2016-08-06T02:41:32.193Z,1018.21
2016-08-06T02:42:45.162Z,1018.24
2016-08-06T02:43:58.129Z,1018.19
2016-08-06T02:45:11.297Z,1018.23
2016-08-06T02:46:24.265Z,1018.19
2016-08-06T02:47:37.240Z,1018.22
2016-08-06T02:48:50.400Z,1018.24
2016-08-06T02:50:03.362Z,1018.2
2016-08-06T02:51:16.330Z,1018.21
2016-08-06T02:52:29.504Z,1018.24
2016-08-06T02:53:42.490Z,1018.24
2016-08-06T02:54:55.470Z,1018.27
2016-08-06T02:56:08.439Z,1018.24
2016-08-06T02:57:21.623Z,1018.27
2016-08-06T02:58:34.585Z,1018.22
2016-08-06T02:59:47.611Z,1018.23
2016-08-06T03:01:00.590Z,1018.23
2016-08-06T03:02:13.566Z,1018.27
2016-08-06T03:03:26.537Z,1018.26
2016-08-06T03:04:39.510Z,1018.25
2016-08-06T03:05:52.486Z,1018.27
2016-08-06T03:07:05.458Z,1018.24
2016-08-06T03:08:18.437Z,1018.27
2016-08-06T03:09:31.420Z,1018.31
2016-08-06T03:10:44.410Z,1018.29
2016-08-06T03:11:57.382Z,1018.36
2016-08-06T03:13:10.354Z,1018.3
2016-08-06T03:14:23.523Z,1018.3
2016-08-06T03:16:48.529Z,1018.31
2016-08-06T03:18:01.488Z,1018.29
2016-08-06T03:19:14.458Z,1018.27
2016-08-06T03:20:27.442Z,1018.31
2016-08-06T03:21:40.415Z,1018.28
2016-08-06T03:22:53.579Z,1018.27
2016-08-06T03:24:06.551Z,1018.27
2016-08-06T03:25:19.520Z,1018.28
2016-08-06T03:26:32.482Z,1018.3
2016-08-06T03:27:45.451Z,1018.3
2016-08-06T03:28:58.419Z,1018.33
2016-08-06T03:30:11.401Z,1018.33
2016-08-06T03:31:24.361Z,1018.32
2016-08-06T03:32:37.342Z,1018.39
2016-08-06T03:33:50.316Z,1018.37
2016-08-06T03:35:03.274Z,1018.39
2016-08-06T03:36:16.248Z,1018.43
2016-08-06T03:37:29.219Z,1018.44
2016-08-06T03:38:42.183Z,1018.42
2016-08-06T03:39:55.149Z,1018.44
2016-08-06T03:41:08.113Z,1018.42
2016-08-06T03:42:21.286Z,1018.44
2016-08-06T03:43:34.251Z,1018.43
2016-08-06T03:44:47.218Z,1018.44
2016-08-06T03:46:00.194Z,1018.46
2016-08-06T03:47:13.167Z,1018.47
2016-08-06T03:48:26.532Z,1018.47
2016-08-06T03:49:39.508Z,1018.42
2016-08-06T03:50:52.673Z,1018.46
2016-08-06T03:52:05.646Z,1018.45
2016-08-06T03:53:18.616Z,1018.46
2016-08-06T03:54:31.581Z,1018.49
2016-08-06T03:55:44.541Z,1018.52
2016-08-06T03:56:57.519Z,1018.55
2016-08-06T03:58:10.700Z,1018.54
2016-08-06T03:59:23.685Z,1018.51
2016-08-06T04:00:36.706Z,1018.58
2016-08-06T04:01:49.609Z,1018.58
2016-08-06T04:03:02.583Z,1018.59
2016-08-06T04:04:15.560Z,1018.56
2016-08-06T04:05:28.530Z,1018.58
2016-08-06T04:06:41.500Z,1018.57
2016-08-06T04:07:54.668Z,1018.58
2016-08-06T04:09:07.630Z,1018.56
2016-08-06T04:10:20.606Z,1018.61
2016-08-06T04:11:33.576Z,1018.59
2016-08-06T04:12:46.543Z,1018.58
2016-08-06T04:13:59.509Z,1018.57
2016-08-06T04:15:12.468Z,1018.6
2016-08-06T04:16:25.429Z,1018.56
2016-08-06T04:17:38.401Z,1018.6
2016-08-06T04:18:51.378Z,1018.52
2016-08-06T04:20:04.357Z,1018.54
2016-08-06T04:21:17.327Z,1018.52
2016-08-06T04:22:30.297Z,1018.58
2016-08-06T04:23:43.469Z,1018.58
2016-08-06T04:24:56.637Z,1018.62
2016-08-06T04:26:09.605Z,1018.56
2016-08-06T04:27:22.584Z,1018.6
2016-08-06T04:28:35.559Z,1018.59
2016-08-06T04:29:48.731Z,1018.58
2016-08-06T04:32:13.304Z,1018.6
2016-08-06T04:33:26.272Z,1018.63
2016-08-06T04:34:39.248Z,1018.62
2016-08-06T04:35:52.235Z,1018.7
2016-08-06T04:37:05.200Z,1018.79
2016-08-06T04:38:18.171Z,1018.77
2016-08-06T04:39:31.143Z,1018.83
2016-08-06T04:40:44.113Z,1018.82
2016-08-06T04:41:57.082Z,1018.83
2016-08-06T04:43:10.045Z,1018.84
2016-08-06T04:44:23.012Z,1018.88
2016-08-06T04:45:35.986Z,1018.9
2016-08-06T04:46:48.955Z,1018.82
2016-08-06T04:48:01.918Z,1018.85
2016-08-06T04:49:14.893Z,1018.86
2016-08-06T04:50:27.858Z,1018.92
2016-08-06T04:51:40.822Z,1018.91
2016-08-06T04:52:53.782Z,1018.94
2016-08-06T04:54:06.745Z,1018.95
2016-08-06T04:55:19.705Z,1018.98
2016-08-06T04:56:32.669Z,1019.03
2016-08-06T04:57:45.636Z,1018.95
2016-08-06T04:58:58.605Z,1018.97
2016-08-06T05:00:11.571Z,1018.95
2016-08-06T05:01:24.542Z,1018.98
2016-08-06T05:02:37.715Z,1018.95
2016-08-06T05:03:50.681Z,1018.98
2016-08-06T05:05:03.652Z,1018.97
2016-08-06T05:06:16.620Z,1018.98
2016-08-06T05:07:29.589Z,1019.01
2016-08-06T05:08:42.565Z,1019.04
2016-08-06T05:09:55.534Z,1019.1
2016-08-06T05:11:08.701Z,1019.11
2016-08-06T05:12:21.672Z,1019.11
2016-08-06T05:13:34.632Z,1019.22
2016-08-06T05:14:47.612Z,1019.24
2016-08-06T05:16:00.800Z,1019.26
2016-08-06T05:17:13.762Z,1019.3
2016-08-06T05:18:26.754Z,1019.29
2016-08-06T05:19:39.734Z,1019.32
2016-08-06T05:20:52.714Z,1019.32
2016-08-06T05:22:05.675Z,1019.31
2016-08-06T05:23:18.648Z,1019.31
2016-08-06T05:24:31.616Z,1019.3
2016-08-06T05:25:44.603Z,1019.34
2016-08-06T05:26:57.573Z,1019.39
2016-08-06T05:28:10.546Z,1019.42
2016-08-06T05:29:23.516Z,1019.43
2016-08-06T05:30:36.502Z,1019.43
2016-08-06T05:31:49.474Z,1019.44
2016-08-06T05:33:02.451Z,1019.43
2016-08-06T05:34:15.425Z,1019.43
2016-08-06T05:35:28.390Z,1019.43
2016-08-06T05:36:41.377Z,1019.44
2016-08-06T05:37:54.358Z,1019.45
2016-08-06T05:39:07.530Z,1019.43
2016-08-06T05:40:20.502Z,1019.47
2016-08-06T05:41:33.684Z,1019.48
2016-08-06T05:42:46.651Z,1019.54
2016-08-06T05:43:59.830Z,1019.58
2016-08-06T05:45:12.804Z,1019.54
2016-08-06T05:47:38.476Z,1019.6
2016-08-06T05:48:51.447Z,1019.68
2016-08-06T05:50:04.426Z,1019.66
2016-08-06T05:51:17.396Z,1019.69
2016-08-06T05:52:30.364Z,1019.75
2016-08-06T05:53:43.534Z,1019.77
2016-08-06T05:54:56.502Z,1019.71
2016-08-06T05:56:09.482Z,1019.73
2016-08-06T05:57:22.453Z,1019.72
2016-08-06T05:58:35.624Z,1019.85
2016-08-06T05:59:48.601Z,1019.87
2016-08-06T06:01:01.581Z,1019.92
2016-08-06T06:02:14.551Z,1019.91
2016-08-06T06:03:27.524Z,1019.96
2016-08-06T06:04:40.495Z,1019.99
2016-08-06T06:05:53.461Z,1019.98
2016-08-06T06:07:06.450Z,1020.4
2016-08-06T06:08:19.420Z,1020.02
2016-08-06T06:09:32.399Z,1020.26
2016-08-06T06:10:45.383Z,1020.38
2016-08-06T06:11:58.357Z,1020.17
2016-08-06T06:13:11.328Z,1020.37
2016-08-06T06:14:24.308Z,1020.05
2016-08-06T06:15:37.296Z,1020.07
2016-08-06T06:16:50.280Z,1020.08
2016-08-06T06:18:03.270Z,1019.93
2016-08-06T06:19:16.252Z,1020.24
2016-08-06T06:20:29.217Z,1020.68
2016-08-06T06:21:42.188Z,1020.25
2016-08-06T06:22:55.166Z,1020.19
2016-08-06T06:24:08.146Z,1020.78
2016-08-06T06:25:21.129Z,1020.5
2016-08-06T06:26:34.100Z,1020.22
2016-08-06T06:27:47.091Z,1020.17
2016-08-06T06:29:00.054Z,1020.74
2016-08-06T06:30:13.033Z,1020.89
2016-08-06T06:31:26.036Z,1020.34
2016-08-06T06:32:37.625Z,1020.51
2016-08-06T06:33:50.998Z,1020.43
2016-08-06T06:35:03.975Z,1020.24
2016-08-06T06:36:17.148Z,1020.2
2016-08-06T06:37:30.116Z,1020.57
2016-08-06T06:38:43.301Z,1020.54
2016-08-06T06:39:56.286Z,1020.6
2016-08-06T06:41:09.269Z,1020.18
2016-08-06T06:42:22.247Z,1020.36
2016-08-06T06:43:35.230Z,1020.43
2016-08-06T06:44:48.203Z,1020.25
2016-08-06T06:46:01.185Z,1020.39
2016-08-06T06:47:14.161Z,1020.36
2016-08-06T06:48:27.342Z,1020.33
2016-08-06T06:49:40.338Z,1020.3
2016-08-06T06:50:53.326Z,1020.36
2016-08-06T06:52:06.317Z,1020.3
2016-08-06T06:53:19.300Z,1020.26
2016-08-06T06:54:32.285Z,1020.36
2016-08-06T06:55:45.259Z,1020.35
2016-08-06T06:56:58.243Z,1020.38
2016-08-06T06:58:11.222Z,1020.44
2016-08-06T06:59:24.194Z,1020.36
2016-08-06T07:00:37.171Z,1020.39
2016-08-06T07:01:50.152Z,1020.44
2016-08-06T07:03:03.135Z,1020.49
2016-08-06T07:04:16.116Z,1020.47
2016-08-06T07:05:29.096Z,1020.48
2016-08-06T07:06:42.081Z,1020.4
2016-08-06T07:07:55.260Z,1020.43
2016-08-06T07:09:08.249Z,1020.59
2016-08-06T07:10:21.232Z,1020.57
2016-08-06T07:11:34.407Z,1020.53
2016-08-06T07:12:47.379Z,1020.72
2016-08-06T07:14:00.359Z,1020.7
2016-08-06T07:15:13.346Z,1020.92
2016-08-06T07:16:26.317Z,1021.05
2016-08-06T07:17:39.502Z,1020.95
2016-08-06T07:18:52.474Z,1020.74
2016-08-06T07:20:05.454Z,1020.85
2016-08-06T07:21:18.432Z,1021.04
2016-08-06T07:22:31.426Z,1021.11
2016-08-06T07:23:44.401Z,1021.08
2016-08-06T07:24:57.385Z,1021.02
2016-08-06T07:26:10.372Z,1021.11
2016-08-06T07:27:23.347Z,1021.01
2016-08-06T07:28:36.346Z,1021.03
2016-08-06T07:29:49.333Z,1020.86
2016-08-06T07:31:02.309Z,1020.99
2016-08-06T07:32:15.290Z,1020.78
2016-08-06T07:33:28.277Z,1020.89
2016-08-06T07:34:41.471Z,1021.02
2016-08-06T07:35:54.457Z,1020.93
2016-08-06T07:37:07.641Z,1021.18
2016-08-06T07:38:20.647Z,1021.18
2016-08-06T07:39:33.632Z,1021.13
2016-08-06T07:40:46.619Z,1021.17
2016-08-06T07:41:59.607Z,1021.35
2016-08-06T07:43:12.606Z,1021.38
2016-08-06T07:44:25.788Z,1021.35
2016-08-06T07:45:38.765Z,1021.61
2016-08-06T07:48:04.026Z,1021.15
2016-08-06T07:49:17.218Z,1021.07
2016-08-06T07:50:30.199Z,1021.06
2016-08-06T07:51:43.198Z,1021.09
2016-08-06T07:52:56.183Z,1021.41
2016-08-06T07:54:09.171Z,1021.84
2016-08-06T07:55:22.163Z,1022.12
2016-08-06T07:56:35.164Z,1021.77
2016-08-06T07:57:48.148Z,1021.43
2016-08-06T07:59:01.144Z,1021.08
2016-08-06T08:00:14.117Z,1020.83
2016-08-06T08:01:27.315Z,1020.75
2016-08-06T08:02:40.299Z,1020.66
2016-08-06T08:03:53.288Z,1022.54
2016-08-06T08:05:06.269Z,1023.91
2016-08-06T08:06:19.263Z,1028.27
2016-08-06T08:07:32.445Z,1029.33
2016-08-06T08:08:45.439Z,1027.48
2016-08-06T08:09:58.424Z,1023.79
2016-08-06T08:11:11.408Z,1022.04
2016-08-06T08:12:24.595Z,1026.25
2016-08-06T08:13:37.580Z,1022.87
2016-08-06T08:14:50.765Z,1021.01
2016-08-06T08:16:03.748Z,1021.32
2016-08-06T08:17:16.941Z,1021.27
2016-08-06T08:18:29.915Z,1021.14
2016-08-06T08:19:42.907Z,1021.25
2016-08-06T08:20:55.885Z,1021.24
2016-08-06T08:22:08.888Z,1020.79
2016-08-06T08:23:21.870Z,1022.62
2016-08-06T08:24:34.855Z,1020.95
2016-08-06T08:25:48.038Z,1021.26
2016-08-06T08:27:01.223Z,1020.76
2016-08-06T08:28:14.197Z,1020.82
2016-08-06T08:29:27.187Z,1020.79
2016-08-06T08:30:40.171Z,1020.96
2016-08-06T08:31:53.155Z,1020.99
2016-08-06T08:33:06.160Z,1021.23
2016-08-06T08:34:19.351Z,1020.98
2016-08-06T08:35:32.550Z,1020.86
2016-08-06T08:36:45.624Z,1020.79
2016-08-06T08:37:58.604Z,1020.67
2016-08-06T08:39:11.994Z,1020.65
2016-08-06T08:40:24.978Z,1020.69
2016-08-06T08:41:37.959Z,1020.6
2016-08-06T08:42:51.135Z,1020.62
2016-08-06T08:44:04.118Z,1020.59
2016-08-06T08:45:17.098Z,1020.55
2016-08-06T08:46:30.081Z,1020.62
2016-08-06T08:47:43.061Z,1020.6
2016-08-06T08:48:56.240Z,1020.62
2016-08-06T08:50:09.234Z,1020.64
2016-08-06T08:51:22.414Z,1020.6
2016-08-06T08:52:35.404Z,1020.6
2016-08-06T08:53:48.586Z,1020.64
2016-08-06T08:55:01.561Z,1020.75
2016-08-06T08:56:14.931Z,1020.65
2016-08-06T08:57:28.110Z,1020.8
2016-08-06T08:58:41.092Z,1020.71
2016-08-06T08:59:54.269Z,1020.97
2016-08-06T09:01:07.298Z,1021.34
2016-08-06T09:03:32.335Z,1020.97
2016-08-06T09:04:45.308Z,1021.05
2016-08-06T09:05:58.290Z,1021.18
2016-08-06T09:07:11.476Z,1021.51
2016-08-06T09:08:24.462Z,1021.18
2016-08-06T09:09:37.443Z,1021.05
2016-08-06T09:10:50.618Z,1021.19
2016-08-06T09:12:03.797Z,1021.41
2016-08-06T09:13:16.780Z,1021.68
2016-08-06T09:14:29.766Z,1021.81
2016-08-06T09:15:42.759Z,1021.45
2016-08-06T09:16:55.745Z,1021.46
2016-08-06T09:18:08.728Z,1021.36
2016-08-06T09:19:21.710Z,1021.38
2016-08-06T09:20:34.690Z,1021.6
2016-08-06T09:21:47.671Z,1021.25
2016-08-06T09:23:00.650Z,1021.18
2016-08-06T09:24:13.634Z,1021.22
2016-08-06T09:25:26.621Z,1021.27
2016-08-06T09:26:39.596Z,1021.64
2016-08-06T09:27:52.592Z,1021.46
2016-08-06T09:29:05.562Z,1021.17
2016-08-06T09:30:18.547Z,1021
2016-08-06T09:31:31.533Z,1021.01
2016-08-06T09:32:44.512Z,1021.1
2016-08-06T09:33:57.697Z,1021.06
2016-08-06T09:35:10.671Z,1020.96
2016-08-06T09:36:23.650Z,1020.94
2016-08-06T09:37:36.624Z,1020.9
2016-08-06T09:38:49.813Z,1020.81
2016-08-06T09:40:02.996Z,1020.77
2016-08-06T09:41:15.978Z,1020.78
2016-08-06T09:42:28.960Z,1020.72
2016-08-06T09:43:41.942Z,1020.78
2016-08-06T09:44:54.936Z,1020.83
2016-08-06T09:46:07.931Z,1020.82
2016-08-06T09:48:32.036Z,1020.85
2016-08-06T09:49:45.010Z,1020.86
2016-08-06T09:50:57.994Z,1020.86
2016-08-06T09:52:10.970Z,1020.92
2016-08-06T09:53:23.949Z,1021
2016-08-06T09:54:36.918Z,1020.98
2016-08-06T09:55:49.908Z,1021.05
2016-08-06T09:57:03.088Z,1021.03
2016-08-06T09:58:16.060Z,1020.99
2016-08-06T09:59:29.026Z,1020.95
2016-08-06T10:00:42.000Z,1020.89
2016-08-06T10:01:55.020Z,1020.88
2016-08-06T10:03:08.001Z,1020.85
2016-08-06T10:04:21.179Z,1020.83
2016-08-06T10:05:34.153Z,1020.83
2016-08-06T10:06:47.124Z,1020.85
2016-08-06T10:08:00.104Z,1020.87
2016-08-06T10:09:13.106Z,1020.87
2016-08-06T10:10:26.082Z,1020.87
2016-08-06T10:11:39.264Z,1020.88
2016-08-06T10:12:52.251Z,1020.89
2016-08-06T10:14:05.242Z,1020.9
2016-08-06T10:15:18.415Z,1020.89
2016-08-06T10:16:31.589Z,1020.83
2016-08-06T10:17:44.569Z,1020.9
2016-08-06T10:18:57.551Z,1020.93
2016-08-06T10:20:10.534Z,1021
2016-08-06T10:21:23.707Z,1021.07
2016-08-06T10:22:36.908Z,1021.18
2016-08-06T10:23:50.091Z,1021.21
2016-08-06T10:25:03.081Z,1021.16
2016-08-06T10:26:16.080Z,1021.13
2016-08-06T10:27:29.480Z,1021.14
2016-08-06T10:28:42.659Z,1021.12
2016-08-06T10:29:55.639Z,1021.06
2016-08-06T10:31:08.631Z,1020.96
2016-08-06T10:32:21.827Z,1020.98
2016-08-06T10:33:33.889Z,1020.98
2016-08-06T10:34:46.879Z,1020.96
2016-08-06T10:35:59.859Z,1020.91
2016-08-06T10:37:13.044Z,1020.94
2016-08-06T10:38:26.028Z,1020.91
2016-08-06T10:39:39.003Z,1020.92
2016-08-06T10:40:51.978Z,1020.89
2016-08-06T10:42:04.950Z,1020.88
2016-08-06T10:43:17.946Z,1020.87
2016-08-06T10:44:30.918Z,1020.84
2016-08-06T10:45:43.907Z,1020.84
2016-08-06T10:46:56.888Z,1020.89
2016-08-06T10:48:09.866Z,1020.87
2016-08-06T10:49:22.847Z,1020.85
2016-08-06T10:50:35.822Z,1020.88
2016-08-06T10:51:48.813Z,1020.9
2016-08-06T10:53:01.795Z,1020.92
2016-08-06T10:54:14.779Z,1020.93
2016-08-06T10:55:27.763Z,1020.96
2016-08-06T10:56:40.736Z,1020.98
2016-08-06T10:57:53.719Z,1020.99
2016-08-06T10:59:06.699Z,1020.98
2016-08-06T11:00:19.695Z,1020.99
2016-08-06T11:01:32.721Z,1020.99
2016-08-06T11:02:45.697Z,1020.96
2016-08-06T11:03:58.683Z,1021
2016-08-06T11:05:11.663Z,1021.05
2016-08-06T11:06:25.044Z,1021.08
2016-08-06T11:07:38.224Z,1021.09
2016-08-06T11:08:51.204Z,1021.07
2016-08-06T11:10:04.195Z,1021.08
2016-08-06T11:11:17.172Z,1021.07
2016-08-06T11:12:30.344Z,1021.08
2016-08-06T11:13:43.325Z,1021.04
2016-08-06T11:14:56.310Z,1021.05
2016-08-06T11:16:09.489Z,1021.08
2016-08-06T11:17:22.679Z,1021.09
2016-08-06T11:18:35.658Z,1021.11
2016-08-06T11:19:48.637Z,1021.16
2016-08-06T11:21:01.628Z,1021.08
2016-08-06T11:22:14.611Z,1021.05
2016-08-06T11:23:27.785Z,1021
2016-08-06T11:24:41.183Z,1021.05
2016-08-06T11:25:54.377Z,1021.04
2016-08-06T11:27:07.355Z,1021.02
2016-08-06T11:28:20.339Z,1021.04
2016-08-06T11:29:33.323Z,1021.04
2016-08-06T11:30:46.304Z,1021.06
2016-08-06T11:31:59.500Z,1021.03
2016-08-06T11:33:12.469Z,1021.01
2016-08-06T11:34:25.459Z,1020.98
2016-08-06T11:35:38.441Z,1021.03
2016-08-06T11:36:52.025Z,1020.94
2016-08-06T11:38:05.008Z,1020.96
2016-08-06T11:39:17.994Z,1020.97
2016-08-06T11:40:30.992Z,1020.99
2016-08-06T11:41:43.976Z,1021.02
2016-08-06T11:42:57.150Z,1021
2016-08-06T11:44:10.127Z,1021.01
2016-08-06T11:45:23.112Z,1021
2016-08-06T11:46:36.085Z,1021.04
2016-08-06T11:49:00.200Z,1021.03
2016-08-06T11:50:13.183Z,1021.02
2016-08-06T11:51:26.159Z,1021.07
2016-08-06T11:52:39.137Z,1021.08
2016-08-06T11:53:52.113Z,1021.08
2016-08-06T11:55:05.094Z,1021.14
2016-08-06T11:56:18.269Z,1021.22
2016-08-06T11:57:31.439Z,1021.22
2016-08-06T11:58:44.421Z,1021.11
2016-08-06T11:59:57.617Z,1021.03
2016-08-06T12:01:10.598Z,1021.03
2016-08-06T12:02:23.575Z,1021.09
2016-08-06T12:03:36.559Z,1021.12
2016-08-06T12:04:49.545Z,1021.13
2016-08-06T12:06:02.635Z,1021.05
2016-08-06T12:07:15.624Z,1021.08
2016-08-06T12:08:28.602Z,1021.01
2016-08-06T12:09:41.577Z,1020.97
2016-08-06T12:10:54.558Z,1021.02
2016-08-06T12:12:07.539Z,1021.08
2016-08-06T12:13:20.516Z,1021.05
2016-08-06T12:14:33.499Z,1021.06
2016-08-06T12:15:46.476Z,1021.09
2016-08-06T12:16:59.476Z,1021.16
2016-08-06T12:18:12.443Z,1021.12
2016-08-06T12:19:25.421Z,1021.1
2016-08-06T12:20:38.394Z,1021.13
2016-08-06T12:21:52.107Z,1021.18
2016-08-06T12:23:05.070Z,1021.22
2016-08-06T12:24:18.053Z,1021.21
2016-08-06T12:25:31.222Z,1021.19
2016-08-06T12:26:44.205Z,1021.19
2016-08-06T12:27:57.181Z,1021.22
2016-08-06T12:29:10.348Z,1021.23
2016-08-06T12:30:23.326Z,1021.29
2016-08-06T12:31:36.297Z,1021.25
2016-08-06T12:32:49.277Z,1021.29
2016-08-06T12:34:01.790Z,1021.35
2016-08-06T12:35:14.771Z,1021.39
2016-08-06T12:36:27.756Z,1021.35
2016-08-06T12:37:40.732Z,1021.26
2016-08-06T12:38:53.709Z,1021.22
2016-08-06T12:40:06.883Z,1021.3
2016-08-06T12:41:19.858Z,1021.6
2016-08-06T12:42:32.848Z,1021.58
2016-08-06T12:43:45.821Z,1021.63
2016-08-06T12:44:59.005Z,1021.79
2016-08-06T12:46:11.988Z,1021.85
2016-08-06T12:47:24.974Z,1021.62
2016-08-06T12:48:37.955Z,1021.51
2016-08-06T12:49:50.929Z,1021.48
2016-08-06T12:51:04.315Z,1021.53
2016-08-06T12:52:17.289Z,1021.66
2016-08-06T12:53:30.272Z,1021.74
2016-08-06T12:54:43.246Z,1021.64
2016-08-06T12:55:56.227Z,1021.56
2016-08-06T12:57:09.209Z,1021.68
2016-08-06T12:58:22.187Z,1021.59
2016-08-06T12:59:35.166Z,1021.52
2016-08-06T13:00:48.345Z,1021.53
2016-08-06T13:02:01.330Z,1021.5
2016-08-06T13:04:25.442Z,1021.47
2016-08-06T13:05:38.421Z,1021.53
2016-08-06T13:06:51.431Z,1021.55
2016-08-06T13:08:04.414Z,1021.62
2016-08-06T13:09:17.397Z,1021.69
2016-08-06T13:10:30.386Z,1021.6
2016-08-06T13:11:43.364Z,1021.68
2016-08-06T13:12:56.345Z,1021.62
2016-08-06T13:14:09.326Z,1021.6
2016-08-06T13:15:22.312Z,1021.63
2016-08-06T13:16:35.294Z,1021.63
2016-08-06T13:17:48.273Z,1021.59
2016-08-06T13:19:01.262Z,1021.52
2016-08-06T13:20:14.227Z,1021.6
2016-08-06T13:21:27.201Z,1021.64
2016-08-06T13:22:40.182Z,1021.57
2016-08-06T13:23:53.366Z,1021.66
2016-08-06T13:25:06.345Z,1021.54
2016-08-06T13:26:19.333Z,1021.57
2016-08-06T13:27:32.303Z,1021.65
2016-08-06T13:28:45.492Z,1021.64
2016-08-06T13:29:58.477Z,1021.79
2016-08-06T13:31:11.460Z,1021.79
2016-08-06T13:32:24.439Z,1021.72
2016-08-06T13:33:37.620Z,1021.75
2016-08-06T13:34:50.608Z,1021.75
2016-08-06T13:36:03.596Z,1021.7
2016-08-06T13:37:16.569Z,1021.58
2016-08-06T13:38:29.560Z,1021.61
2016-08-06T13:39:42.539Z,1021.55
2016-08-06T13:40:55.519Z,1021.66
2016-08-06T13:42:08.496Z,1021.69
2016-08-06T13:43:21.481Z,1021.57
2016-08-06T13:44:34.464Z,1021.54
2016-08-06T13:45:47.611Z,1021.64
2016-08-06T13:47:00.591Z,1021.55
2016-08-06T13:48:13.579Z,1021.45
2016-08-06T13:49:25.172Z,1021.46
2016-08-06T13:50:38.148Z,1021.43
2016-08-06T13:51:51.323Z,1021.52
2016-08-06T13:53:04.297Z,1021.48
2016-08-06T13:54:17.275Z,1021.44
2016-08-06T13:55:30.258Z,1021.42
2016-08-06T13:56:43.233Z,1021.37
2016-08-06T13:57:56.223Z,1021.37
2016-08-06T13:59:09.202Z,1021.35
2016-08-06T14:00:22.179Z,1021.38
2016-08-06T14:01:37.954Z,1021.44
2016-08-06T14:02:51.133Z,1021.48
2016-08-06T14:04:04.331Z,1021.45
2016-08-06T14:05:17.308Z,1021.42
2016-08-06T14:06:30.287Z,1021.37
2016-08-06T14:07:43.292Z,1021.41
2016-08-06T14:08:56.274Z,1021.46
2016-08-06T14:10:09.251Z,1021.44
2016-08-06T14:11:22.228Z,1021.41
2016-08-06T14:12:35.202Z,1021.46
2016-08-06T14:13:48.195Z,1021.52
2016-08-06T14:15:01.178Z,1021.48
2016-08-06T14:16:14.160Z,1021.47
2016-08-06T14:17:27.143Z,1021.53
2016-08-06T14:18:40.126Z,1021.51
2016-08-06T14:19:51.251Z,1021.5
2016-08-06T14:21:04.444Z,1021.43
2016-08-06T14:22:17.433Z,1021.4
2016-08-06T14:23:30.399Z,1021.44
2016-08-06T14:24:43.373Z,1021.44
2016-08-06T14:25:56.364Z,1021.44
2016-08-06T14:27:09.346Z,1021.48
2016-08-06T14:28:22.328Z,1021.52
2016-08-06T14:29:35.320Z,1021.55
2016-08-06T14:30:48.500Z,1021.59
2016-08-06T14:32:01.479Z,1021.6
2016-08-06T14:33:14.456Z,1021.54
2016-08-06T14:34:27.454Z,1021.62
2016-08-06T14:35:40.442Z,1021.62
2016-08-06T14:36:53.426Z,1021.58
2016-08-06T14:38:06.407Z,1021.61
2016-08-06T14:39:19.393Z,1021.71
2016-08-06T14:40:32.769Z,1021.66
2016-08-06T14:41:45.747Z,1021.58
2016-08-06T14:42:58.743Z,1021.54
2016-08-06T14:44:11.729Z,1021.46
2016-08-06T14:45:24.917Z,1021.44
2016-08-06T14:46:37.904Z,1021.49
2016-08-06T14:47:50.896Z,1021.51
2016-08-06T14:49:03.866Z,1021.48
2016-08-06T14:50:17.069Z,1021.46
2016-08-06T14:51:30.068Z,1021.44
2016-08-06T14:52:43.053Z,1021.37
2016-08-06T14:53:56.053Z,1021.43
2016-08-06T14:55:09.019Z,1021.4
2016-08-06T14:56:21.996Z,1021.33
2016-08-06T14:57:34.976Z,1021.3